sensor_id;sensor_type;location;lat;lon;timestamp;P1;durP1;ratioP1;P2;durP2;ratioP2
18933;SDS011;9599;53.706;10.384;2022-10-31T00:01:26;15.93;;;9.93;;
18933;SDS011;9599;53.706;10.384;2022-10-31T00:03:56;14.03;;;9.83;;
18933;SDS011;9599;53.706;10.384;2022-10-31T00:06:24;12.13;;;9.20;;
18933;SDS011;9599;53.706;10.384;2022-10-31T00:08:53;13.30;;;10.20;;
18933;SDS011;9599;53.706;10.384;2022-10-31T00:11:22;12.93;;;9.70;;
18933;SDS011;9599;53.706;10.384;2022-10-31T00:13:50;13.70;;;10.30;;
18933;SDS011;9599;53.706;10.384;2022-10-31T00:16:19;15.77;;;11.33;;
18933;SDS011;9599;53.706;10.384;2022-10-31T00:18:50;16.27;;;11.50;;
18933;SDS011;9599;53.706;10.384;2022-10-31T00:21:19;17.10;;;12.13;;
18933;SDS011;9599;53.706;10.384;2022-10-31T00:23:47;17.97;;;12.03;;
18933;SDS011;9599;53.706;10.384;2022-10-31T00:26:15;17.40;;;12.70;;
18933;SDS011;9599;53.706;10.384;2022-10-31T00:28:43;17.70;;;12.07;;
18933;SDS011;9599;53.706;10.384;2022-10-31T00:31:12;18.20;;;12.60;;
18933;SDS011;9599;53.706;10.384;2022-10-31T00:33:40;29.13;;;14.60;;
18933;SDS011;9599;53.706;10.384;2022-10-31T00:36:11;20.53;;;13.40;;
18933;SDS011;9599;53.706;10.384;2022-10-31T00:38:41;25.10;;;15.90;;
18933;SDS011;9599;53.706;10.384;2022-10-31T00:41:09;26.70;;;16.93;;
18933;SDS011;9599;53.706;10.384;2022-10-31T00:43:39;28.63;;;18.83;;
18933;SDS011;9599;53.706;10.384;2022-10-31T00:46:08;30.27;;;18.70;;
18933;SDS011;9599;53.706;10.384;2022-10-31T00:48:36;33.80;;;20.13;;
18933;SDS011;9599;53.706;10.384;2022-10-31T00:51:04;34.27;;;21.60;;
18933;SDS011;9599;53.706;10.384;2022-10-31T00:53:34;34.03;;;21.57;;
18933;SDS011;9599;53.706;10.384;2022-10-31T00:56:02;36.33;;;22.17;;
18933;SDS011;9599;53.706;10.384;2022-10-31T00:58:30;37.03;;;23.33;;
18933;SDS011;9599;53.706;10.384;2022-10-31T01:00:58;39.20;;;23.43;;
18933;SDS011;9599;53.706;10.384;2022-10-31T01:03:27;39.00;;;24.60;;
18933;SDS011;9599;53.706;10.384;2022-10-31T01:05:57;37.27;;;23.47;;
18933;SDS011;9599;53.706;10.384;2022-10-31T01:08:26;40.17;;;24.27;;
18933;SDS011;9599;53.706;10.384;2022-10-31T01:11:00;44.93;;;24.50;;
18933;SDS011;9599;53.706;10.384;2022-10-31T01:13:31;44.30;;;24.73;;
18933;SDS011;9599;53.706;10.384;2022-10-31T01:16:01;36.47;;;24.07;;
18933;SDS011;9599;53.706;10.384;2022-10-31T01:18:31;40.63;;;24.67;;
18933;SDS011;9599;53.706;10.384;2022-10-31T01:21:00;44.07;;;24.93;;
18933;SDS011;9599;53.706;10.384;2022-10-31T01:23:29;34.90;;;22.83;;
18933;SDS011;9599;53.706;10.384;2022-10-31T01:25:59;36.37;;;22.57;;
18933;SDS011;9599;53.706;10.384;2022-10-31T01:28:36;43.23;;;25.33;;
18933;SDS011;9599;53.706;10.384;2022-10-31T01:31:06;41.70;;;24.27;;
18933;SDS011;9599;53.706;10.384;2022-10-31T01:33:36;38.70;;;23.80;;
18933;SDS011;9599;53.706;10.384;2022-10-31T01:36:12;45.07;;;25.93;;
18933;SDS011;9599;53.706;10.384;2022-10-31T01:38:42;40.60;;;23.80;;
18933;SDS011;9599;53.706;10.384;2022-10-31T01:41:13;47.13;;;25.00;;
18933;SDS011;9599;53.706;10.384;2022-10-31T01:43:43;48.97;;;27.27;;
18933;SDS011;9599;53.706;10.384;2022-10-31T01:46:14;50.97;;;26.97;;
18933;SDS011;9599;53.706;10.384;2022-10-31T01:48:45;50.33;;;27.87;;
18933;SDS011;9599;53.706;10.384;2022-10-31T01:51:13;50.37;;;28.33;;
18933;SDS011;9599;53.706;10.384;2022-10-31T01:53:44;58.37;;;29.90;;
18933;SDS011;9599;53.706;10.384;2022-10-31T01:56:15;52.63;;;29.50;;
18933;SDS011;9599;53.706;10.384;2022-10-31T01:58:44;53.13;;;29.83;;
18933;SDS011;9599;53.706;10.384;2022-10-31T02:01:15;52.23;;;29.27;;
18933;SDS011;9599;53.706;10.384;2022-10-31T02:03:45;53.03;;;29.43;;
18933;SDS011;9599;53.706;10.384;2022-10-31T02:06:18;52.90;;;29.77;;
18933;SDS011;9599;53.706;10.384;2022-10-31T02:08:54;58.60;;;30.47;;
18933;SDS011;9599;53.706;10.384;2022-10-31T02:11:25;60.33;;;30.80;;
18933;SDS011;9599;53.706;10.384;2022-10-31T02:13:55;60.80;;;30.73;;
18933;SDS011;9599;53.706;10.384;2022-10-31T02:16:25;58.93;;;31.10;;
18933;SDS011;9599;53.706;10.384;2022-10-31T02:18:53;59.50;;;31.77;;
18933;SDS011;9599;53.706;10.384;2022-10-31T02:21:24;70.50;;;34.57;;
18933;SDS011;9599;53.706;10.384;2022-10-31T02:24:16;81.67;;;36.20;;
18933;SDS011;9599;53.706;10.384;2022-10-31T02:27:07;90.60;;;39.47;;
18933;SDS011;9599;53.706;10.384;2022-10-31T02:29:48;99.87;;;39.73;;
18933;SDS011;9599;53.706;10.384;2022-10-31T02:32:35;102.70;;;40.30;;
18933;SDS011;9599;53.706;10.384;2022-10-31T02:35:10;94.37;;;38.10;;
18933;SDS011;9599;53.706;10.384;2022-10-31T02:37:51;102.00;;;42.17;;
18933;SDS011;9599;53.706;10.384;2022-10-31T02:40:30;100.07;;;41.53;;
18933;SDS011;9599;53.706;10.384;2022-10-31T02:43:26;96.80;;;40.17;;
18933;SDS011;9599;53.706;10.384;2022-10-31T02:45:58;95.00;;;41.10;;
18933;SDS011;9599;53.706;10.384;2022-10-31T02:48:34;101.07;;;41.57;;
18933;SDS011;9599;53.706;10.384;2022-10-31T02:51:06;108.37;;;40.87;;
18933;SDS011;9599;53.706;10.384;2022-10-31T02:53:36;92.67;;;40.07;;
18933;SDS011;9599;53.706;10.384;2022-10-31T02:56:08;96.77;;;41.70;;
18933;SDS011;9599;53.706;10.384;2022-10-31T02:58:42;104.97;;;41.80;;
18933;SDS011;9599;53.706;10.384;2022-10-31T03:01:17;111.13;;;42.27;;
18933;SDS011;9599;53.706;10.384;2022-10-31T03:04:06;122.00;;;42.43;;
18933;SDS011;9599;53.706;10.384;2022-10-31T03:06:48;115.77;;;43.00;;
18933;SDS011;9599;53.706;10.384;2022-10-31T03:09:22;115.67;;;42.00;;
18933;SDS011;9599;53.706;10.384;2022-10-31T03:11:56;111.40;;;41.60;;
18933;SDS011;9599;53.706;10.384;2022-10-31T03:14:31;122.10;;;42.00;;
18933;SDS011;9599;53.706;10.384;2022-10-31T03:17:07;127.50;;;41.33;;
18933;SDS011;9599;53.706;10.384;2022-10-31T03:19:42;120.10;;;42.13;;
18933;SDS011;9599;53.706;10.384;2022-10-31T03:22:15;145.83;;;42.63;;
18933;SDS011;9599;53.706;10.384;2022-10-31T03:24:45;129.07;;;42.23;;
18933;SDS011;9599;53.706;10.384;2022-10-31T03:27:15;131.63;;;40.90;;
18933;SDS011;9599;53.706;10.384;2022-10-31T03:29:48;139.13;;;41.77;;
18933;SDS011;9599;53.706;10.384;2022-10-31T03:32:20;191.20;;;42.90;;
18933;SDS011;9599;53.706;10.384;2022-10-31T03:34:55;157.30;;;41.27;;
18933;SDS011;9599;53.706;10.384;2022-10-31T03:37:27;127.77;;;41.67;;
18933;SDS011;9599;53.706;10.384;2022-10-31T03:39:57;150.47;;;41.83;;
18933;SDS011;9599;53.706;10.384;2022-10-31T03:42:27;256.17;;;44.20;;
18933;SDS011;9599;53.706;10.384;2022-10-31T03:44:58;154.63;;;41.63;;
18933;SDS011;9599;53.706;10.384;2022-10-31T03:47:29;173.47;;;41.87;;
18933;SDS011;9599;53.706;10.384;2022-10-31T03:49:59;191.13;;;42.00;;
18933;SDS011;9599;53.706;10.384;2022-10-31T03:52:28;113.43;;;40.03;;
18933;SDS011;9599;53.706;10.384;2022-10-31T03:55:04;147.70;;;41.07;;
18933;SDS011;9599;53.706;10.384;2022-10-31T03:57:35;151.60;;;39.13;;
18933;SDS011;9599;53.706;10.384;2022-10-31T04:00:09;169.77;;;41.17;;
18933;SDS011;9599;53.706;10.384;2022-10-31T04:02:45;144.40;;;40.00;;
18933;SDS011;9599;53.706;10.384;2022-10-31T04:05:20;149.13;;;37.77;;
18933;SDS011;9599;53.706;10.384;2022-10-31T04:07:50;168.07;;;38.47;;
18933;SDS011;9599;53.706;10.384;2022-10-31T04:10:22;119.27;;;37.77;;
18933;SDS011;9599;53.706;10.384;2022-10-31T04:13:00;143.60;;;38.17;;
18933;SDS011;9599;53.706;10.384;2022-10-31T04:15:41;118.70;;;35.90;;
18933;SDS011;9599;53.706;10.384;2022-10-31T04:18:12;120.73;;;37.17;;
18933;SDS011;9599;53.706;10.384;2022-10-31T04:20:41;121.87;;;35.97;;
18933;SDS011;9599;53.706;10.384;2022-10-31T04:23:13;117.53;;;36.17;;
18933;SDS011;9599;53.706;10.384;2022-10-31T04:25:47;95.93;;;34.70;;
18933;SDS011;9599;53.706;10.384;2022-10-31T04:28:16;109.90;;;35.73;;
18933;SDS011;9599;53.706;10.384;2022-10-31T04:30:50;105.80;;;35.57;;
18933;SDS011;9599;53.706;10.384;2022-10-31T04:33:18;99.97;;;35.10;;
18933;SDS011;9599;53.706;10.384;2022-10-31T04:35:47;110.43;;;35.27;;
18933;SDS011;9599;53.706;10.384;2022-10-31T04:38:17;92.57;;;35.00;;
18933;SDS011;9599;53.706;10.384;2022-10-31T04:40:46;101.40;;;34.33;;
18933;SDS011;9599;53.706;10.384;2022-10-31T04:43:50;101.00;;;35.23;;
18933;SDS011;9599;53.706;10.384;2022-10-31T04:46:18;106.43;;;34.80;;
18933;SDS011;9599;53.706;10.384;2022-10-31T04:48:46;106.97;;;34.97;;
18933;SDS011;9599;53.706;10.384;2022-10-31T04:51:16;106.90;;;33.97;;
18933;SDS011;9599;53.706;10.384;2022-10-31T04:53:45;122.17;;;36.50;;
18933;SDS011;9599;53.706;10.384;2022-10-31T04:56:44;128.20;;;35.30;;
18933;SDS011;9599;53.706;10.384;2022-10-31T04:59:18;106.97;;;34.07;;
18933;SDS011;9599;53.706;10.384;2022-10-31T05:01:50;127.97;;;35.23;;
18933;SDS011;9599;53.706;10.384;2022-10-31T05:04:33;125.07;;;35.83;;
18933;SDS011;9599;53.706;10.384;2022-10-31T05:07:03;122.33;;;35.30;;
18933;SDS011;9599;53.706;10.384;2022-10-31T05:09:31;125.13;;;35.40;;
18933;SDS011;9599;53.706;10.384;2022-10-31T05:11:59;126.93;;;36.07;;
18933;SDS011;9599;53.706;10.384;2022-10-31T05:14:50;120.20;;;34.80;;
18933;SDS011;9599;53.706;10.384;2022-10-31T05:17:38;119.77;;;34.77;;
18933;SDS011;9599;53.706;10.384;2022-10-31T05:20:32;121.90;;;34.17;;
18933;SDS011;9599;53.706;10.384;2022-10-31T05:23:09;112.13;;;35.57;;
18933;SDS011;9599;53.706;10.384;2022-10-31T05:25:37;117.73;;;33.97;;
18933;SDS011;9599;53.706;10.384;2022-10-31T05:28:07;112.67;;;33.33;;
18933;SDS011;9599;53.706;10.384;2022-10-31T05:30:36;111.67;;;35.00;;
18933;SDS011;9599;53.706;10.384;2022-10-31T05:33:08;123.17;;;35.57;;
18933;SDS011;9599;53.706;10.384;2022-10-31T05:35:54;109.90;;;34.70;;
18933;SDS011;9599;53.706;10.384;2022-10-31T05:38:36;118.93;;;33.37;;
18933;SDS011;9599;53.706;10.384;2022-10-31T05:41:18;113.70;;;32.83;;
18933;SDS011;9599;53.706;10.384;2022-10-31T05:43:47;121.37;;;34.30;;
18933;SDS011;9599;53.706;10.384;2022-10-31T05:46:18;111.00;;;33.20;;
18933;SDS011;9599;53.706;10.384;2022-10-31T05:49:10;134.67;;;34.33;;
18933;SDS011;9599;53.706;10.384;2022-10-31T05:51:56;110.87;;;32.50;;
18933;SDS011;9599;53.706;10.384;2022-10-31T05:54:34;116.37;;;32.77;;
18933;SDS011;9599;53.706;10.384;2022-10-31T05:57:03;114.63;;;32.27;;
18933;SDS011;9599;53.706;10.384;2022-10-31T05:59:31;113.20;;;31.73;;
18933;SDS011;9599;53.706;10.384;2022-10-31T06:02:00;113.40;;;32.17;;
18933;SDS011;9599;53.706;10.384;2022-10-31T06:04:47;113.00;;;32.53;;
18933;SDS011;9599;53.706;10.384;2022-10-31T06:07:16;122.57;;;32.97;;
18933;SDS011;9599;53.706;10.384;2022-10-31T06:09:45;108.93;;;32.53;;
18933;SDS011;9599;53.706;10.384;2022-10-31T06:12:14;109.07;;;32.53;;
18933;SDS011;9599;53.706;10.384;2022-10-31T06:15:00;115.20;;;31.77;;
18933;SDS011;9599;53.706;10.384;2022-10-31T06:17:28;101.03;;;30.30;;
18933;SDS011;9599;53.706;10.384;2022-10-31T06:20:29;112.10;;;31.00;;
18933;SDS011;9599;53.706;10.384;2022-10-31T06:23:01;103.23;;;29.90;;
18933;SDS011;9599;53.706;10.384;2022-10-31T06:25:33;109.63;;;29.07;;
18933;SDS011;9599;53.706;10.384;2022-10-31T06:28:03;112.23;;;29.03;;
18933;SDS011;9599;53.706;10.384;2022-10-31T06:30:52;107.37;;;28.23;;
18933;SDS011;9599;53.706;10.384;2022-10-31T06:33:20;108.70;;;28.70;;
18933;SDS011;9599;53.706;10.384;2022-10-31T06:36:00;129.37;;;29.70;;
18933;SDS011;9599;53.706;10.384;2022-10-31T06:38:28;117.27;;;28.97;;
18933;SDS011;9599;53.706;10.384;2022-10-31T06:41:01;114.83;;;28.00;;
18933;SDS011;9599;53.706;10.384;2022-10-31T06:43:38;116.17;;;28.20;;
18933;SDS011;9599;53.706;10.384;2022-10-31T06:46:25;114.87;;;28.30;;
18933;SDS011;9599;53.706;10.384;2022-10-31T06:49:05;126.90;;;27.83;;
18933;SDS011;9599;53.706;10.384;2022-10-31T06:51:41;131.27;;;27.93;;
18933;SDS011;9599;53.706;10.384;2022-10-31T06:54:09;118.17;;;26.93;;
18933;SDS011;9599;53.706;10.384;2022-10-31T06:56:39;113.33;;;27.03;;
18933;SDS011;9599;53.706;10.384;2022-10-31T06:59:07;119.60;;;26.93;;
18933;SDS011;9599;53.706;10.384;2022-10-31T07:01:57;112.97;;;26.90;;
18933;SDS011;9599;53.706;10.384;2022-10-31T07:04:25;109.73;;;25.70;;
18933;SDS011;9599;53.706;10.384;2022-10-31T07:06:53;128.40;;;27.63;;
18933;SDS011;9599;53.706;10.384;2022-10-31T07:09:21;114.70;;;26.77;;
18933;SDS011;9599;53.706;10.384;2022-10-31T07:11:52;105.00;;;25.67;;
18933;SDS011;9599;53.706;10.384;2022-10-31T07:14:21;104.67;;;24.93;;
18933;SDS011;9599;53.706;10.384;2022-10-31T07:16:49;107.77;;;25.30;;
18933;SDS011;9599;53.706;10.384;2022-10-31T07:19:24;89.40;;;22.83;;
18933;SDS011;9599;53.706;10.384;2022-10-31T07:21:52;103.03;;;23.87;;
18933;SDS011;9599;53.706;10.384;2022-10-31T07:24:23;96.47;;;23.07;;
18933;SDS011;9599;53.706;10.384;2022-10-31T07:27:10;87.40;;;22.10;;
18933;SDS011;9599;53.706;10.384;2022-10-31T07:29:38;96.50;;;21.97;;
18933;SDS011;9599;53.706;10.384;2022-10-31T07:32:07;95.47;;;22.73;;
18933;SDS011;9599;53.706;10.384;2022-10-31T07:34:41;85.63;;;22.13;;
18933;SDS011;9599;53.706;10.384;2022-10-31T07:37:27;80.47;;;23.17;;
18933;SDS011;9599;53.706;10.384;2022-10-31T07:39:57;85.23;;;22.47;;
18933;SDS011;9599;53.706;10.384;2022-10-31T07:42:26;80.73;;;22.77;;
18933;SDS011;9599;53.706;10.384;2022-10-31T07:44:55;75.00;;;21.53;;
18933;SDS011;9599;53.706;10.384;2022-10-31T07:47:42;76.03;;;22.13;;
18933;SDS011;9599;53.706;10.384;2022-10-31T07:50:30;79.40;;;21.57;;
18933;SDS011;9599;53.706;10.384;2022-10-31T07:53:18;70.77;;;20.87;;
18933;SDS011;9599;53.706;10.384;2022-10-31T07:55:53;69.23;;;20.03;;
18933;SDS011;9599;53.706;10.384;2022-10-31T07:58:28;66.67;;;19.67;;
18933;SDS011;9599;53.706;10.384;2022-10-31T08:00:57;63.83;;;20.23;;
18933;SDS011;9599;53.706;10.384;2022-10-31T08:03:35;70.23;;;20.40;;
18933;SDS011;9599;53.706;10.384;2022-10-31T08:06:08;69.70;;;19.57;;
18933;SDS011;9599;53.706;10.384;2022-10-31T08:08:57;65.97;;;19.97;;
18933;SDS011;9599;53.706;10.384;2022-10-31T08:11:25;61.83;;;18.83;;
18933;SDS011;9599;53.706;10.384;2022-10-31T08:13:55;59.07;;;19.37;;
18933;SDS011;9599;53.706;10.384;2022-10-31T08:16:23;66.60;;;20.47;;
18933;SDS011;9599;53.706;10.384;2022-10-31T08:18:58;67.33;;;19.80;;
18933;SDS011;9599;53.706;10.384;2022-10-31T08:21:28;56.37;;;18.33;;
18933;SDS011;9599;53.706;10.384;2022-10-31T08:23:57;56.97;;;18.23;;
18933;SDS011;9599;53.706;10.384;2022-10-31T08:26:26;55.83;;;17.90;;
18933;SDS011;9599;53.706;10.384;2022-10-31T08:28:56;55.63;;;17.50;;
18933;SDS011;9599;53.706;10.384;2022-10-31T08:31:28;55.67;;;18.73;;
18933;SDS011;9599;53.706;10.384;2022-10-31T08:34:39;56.57;;;17.77;;
18933;SDS011;9599;53.706;10.384;2022-10-31T08:37:26;56.47;;;18.77;;
18933;SDS011;9599;53.706;10.384;2022-10-31T08:39:55;55.63;;;17.67;;
18933;SDS011;9599;53.706;10.384;2022-10-31T08:42:23;50.47;;;17.40;;
18933;SDS011;9599;53.706;10.384;2022-10-31T08:44:52;49.90;;;17.13;;
18933;SDS011;9599;53.706;10.384;2022-10-31T08:47:21;50.67;;;18.43;;
18933;SDS011;9599;53.706;10.384;2022-10-31T08:49:49;46.10;;;16.13;;
18933;SDS011;9599;53.706;10.384;2022-10-31T08:52:18;48.87;;;17.93;;
18933;SDS011;9599;53.706;10.384;2022-10-31T08:55:10;47.03;;;16.80;;
18933;SDS011;9599;53.706;10.384;2022-10-31T08:57:57;42.60;;;15.63;;
18933;SDS011;9599;53.706;10.384;2022-10-31T09:00:36;48.50;;;16.37;;
18933;SDS011;9599;53.706;10.384;2022-10-31T09:03:17;43.13;;;16.37;;
18933;SDS011;9599;53.706;10.384;2022-10-31T09:05:46;46.63;;;16.00;;
18933;SDS011;9599;53.706;10.384;2022-10-31T09:08:15;45.33;;;15.47;;
18933;SDS011;9599;53.706;10.384;2022-10-31T09:10:46;38.73;;;15.17;;
18933;SDS011;9599;53.706;10.384;2022-10-31T09:13:20;41.77;;;15.70;;
18933;SDS011;9599;53.706;10.384;2022-10-31T09:16:23;35.87;;;14.50;;
18933;SDS011;9599;53.706;10.384;2022-10-31T09:18:52;37.40;;;15.00;;
18933;SDS011;9599;53.706;10.384;2022-10-31T09:21:20;35.37;;;14.20;;
18933;SDS011;9599;53.706;10.384;2022-10-31T09:23:49;35.73;;;14.77;;
18933;SDS011;9599;53.706;10.384;2022-10-31T09:26:19;37.50;;;14.50;;
18933;SDS011;9599;53.706;10.384;2022-10-31T09:29:03;30.20;;;13.03;;
18933;SDS011;9599;53.706;10.384;2022-10-31T09:31:33;32.43;;;13.03;;
18933;SDS011;9599;53.706;10.384;2022-10-31T09:34:18;30.80;;;13.13;;
18933;SDS011;9599;53.706;10.384;2022-10-31T09:37:00;28.43;;;12.13;;
18933;SDS011;9599;53.706;10.384;2022-10-31T09:39:28;30.13;;;12.00;;
18933;SDS011;9599;53.706;10.384;2022-10-31T09:42:19;30.50;;;12.43;;
18933;SDS011;9599;53.706;10.384;2022-10-31T09:45:15;30.43;;;12.63;;
18933;SDS011;9599;53.706;10.384;2022-10-31T09:47:52;30.73;;;12.30;;
18933;SDS011;9599;53.706;10.384;2022-10-31T09:50:31;26.80;;;12.37;;
18933;SDS011;9599;53.706;10.384;2022-10-31T09:53:27;26.20;;;11.63;;
18933;SDS011;9599;53.706;10.384;2022-10-31T09:56:00;26.37;;;11.93;;
18933;SDS011;9599;53.706;10.384;2022-10-31T09:58:32;25.83;;;12.30;;
18933;SDS011;9599;53.706;10.384;2022-10-31T10:01:06;30.47;;;12.60;;
18933;SDS011;9599;53.706;10.384;2022-10-31T10:03:51;23.57;;;11.83;;
18933;SDS011;9599;53.706;10.384;2022-10-31T10:06:52;25.20;;;11.63;;
18933;SDS011;9599;53.706;10.384;2022-10-31T10:09:43;26.43;;;11.63;;
18933;SDS011;9599;53.706;10.384;2022-10-31T10:12:35;26.20;;;11.30;;
18933;SDS011;9599;53.706;10.384;2022-10-31T10:15:20;24.20;;;11.33;;
18933;SDS011;9599;53.706;10.384;2022-10-31T10:18:05;27.00;;;11.70;;
18933;SDS011;9599;53.706;10.384;2022-10-31T10:20:42;21.53;;;11.30;;
18933;SDS011;9599;53.706;10.384;2022-10-31T10:23:29;26.27;;;11.40;;
18933;SDS011;9599;53.706;10.384;2022-10-31T10:26:05;23.83;;;12.70;;
18933;SDS011;9599;53.706;10.384;2022-10-31T10:28:43;21.37;;;11.27;;
18933;SDS011;9599;53.706;10.384;2022-10-31T10:31:14;22.77;;;11.30;;
18933;SDS011;9599;53.706;10.384;2022-10-31T10:33:45;23.07;;;11.70;;
18933;SDS011;9599;53.706;10.384;2022-10-31T10:36:22;23.03;;;12.03;;
18933;SDS011;9599;53.706;10.384;2022-10-31T10:38:55;26.03;;;12.47;;
18933;SDS011;9599;53.706;10.384;2022-10-31T10:41:27;21.73;;;10.97;;
18933;SDS011;9599;53.706;10.384;2022-10-31T10:44:00;22.40;;;11.87;;
18933;SDS011;9599;53.706;10.384;2022-10-31T10:46:30;22.57;;;11.10;;
18933;SDS011;9599;53.706;10.384;2022-10-31T10:49:26;21.77;;;11.47;;
18933;SDS011;9599;53.706;10.384;2022-10-31T10:52:02;24.43;;;11.73;;
18933;SDS011;9599;53.706;10.384;2022-10-31T10:55:03;22.07;;;11.43;;
18933;SDS011;9599;53.706;10.384;2022-10-31T10:57:44;22.77;;;11.47;;
18933;SDS011;9599;53.706;10.384;2022-10-31T11:00:21;21.73;;;11.07;;
18933;SDS011;9599;53.706;10.384;2022-10-31T11:02:50;21.87;;;11.70;;
18933;SDS011;9599;53.706;10.384;2022-10-31T11:05:23;21.70;;;11.37;;
18933;SDS011;9599;53.706;10.384;2022-10-31T11:08:04;20.70;;;10.80;;
18933;SDS011;9599;53.706;10.384;2022-10-31T11:10:32;20.70;;;11.40;;
18933;SDS011;9599;53.706;10.384;2022-10-31T11:13:03;21.53;;;11.37;;
18933;SDS011;9599;53.706;10.384;2022-10-31T11:15:35;19.40;;;10.87;;
18933;SDS011;9599;53.706;10.384;2022-10-31T11:18:17;18.93;;;10.87;;
18933;SDS011;9599;53.706;10.384;2022-10-31T11:20:54;17.70;;;10.10;;
18933;SDS011;9599;53.706;10.384;2022-10-31T11:23:25;17.43;;;10.53;;
18933;SDS011;9599;53.706;10.384;2022-10-31T11:25:56;20.43;;;11.27;;
18933;SDS011;9599;53.706;10.384;2022-10-31T11:28:25;16.97;;;9.80;;
18933;SDS011;9599;53.706;10.384;2022-10-31T11:30:55;15.00;;;9.03;;
18933;SDS011;9599;53.706;10.384;2022-10-31T11:33:28;13.40;;;9.03;;
18933;SDS011;9599;53.706;10.384;2022-10-31T11:35:59;15.23;;;8.50;;
18933;SDS011;9599;53.706;10.384;2022-10-31T11:38:32;14.57;;;8.60;;
18933;SDS011;9599;53.706;10.384;2022-10-31T11:41:05;13.80;;;9.03;;
18933;SDS011;9599;53.706;10.384;2022-10-31T11:43:39;15.70;;;8.90;;
18933;SDS011;9599;53.706;10.384;2022-10-31T11:46:15;14.77;;;9.23;;
18933;SDS011;9599;53.706;10.384;2022-10-31T11:48:48;15.87;;;9.13;;
18933;SDS011;9599;53.706;10.384;2022-10-31T11:51:20;16.00;;;9.83;;
18933;SDS011;9599;53.706;10.384;2022-10-31T11:53:52;17.60;;;9.73;;
18933;SDS011;9599;53.706;10.384;2022-10-31T11:56:36;19.33;;;9.67;;
18933;SDS011;9599;53.706;10.384;2022-10-31T11:59:05;15.83;;;9.80;;
18933;SDS011;9599;53.706;10.384;2022-10-31T12:01:46;15.53;;;9.90;;
18933;SDS011;9599;53.706;10.384;2022-10-31T12:04:15;16.53;;;9.83;;
18933;SDS011;9599;53.706;10.384;2022-10-31T12:06:44;17.97;;;9.83;;
18933;SDS011;9599;53.706;10.384;2022-10-31T12:09:17;16.40;;;10.00;;
18933;SDS011;9599;53.706;10.384;2022-10-31T12:11:56;21.00;;;9.77;;
18933;SDS011;9599;53.706;10.384;2022-10-31T12:14:36;18.23;;;9.87;;
18933;SDS011;9599;53.706;10.384;2022-10-31T12:17:13;17.17;;;9.30;;
18933;SDS011;9599;53.706;10.384;2022-10-31T12:19:59;16.40;;;10.10;;
18933;SDS011;9599;53.706;10.384;2022-10-31T12:22:37;16.30;;;9.23;;
18933;SDS011;9599;53.706;10.384;2022-10-31T12:25:15;14.80;;;9.20;;
18933;SDS011;9599;53.706;10.384;2022-10-31T12:28:00;13.70;;;9.03;;
18933;SDS011;9599;53.706;10.384;2022-10-31T12:30:40;15.00;;;8.83;;
18933;SDS011;9599;53.706;10.384;2022-10-31T12:33:21;16.70;;;9.43;;
18933;SDS011;9599;53.706;10.384;2022-10-31T12:35:59;16.20;;;9.07;;
18933;SDS011;9599;53.706;10.384;2022-10-31T12:38:53;15.30;;;9.37;;
18933;SDS011;9599;53.706;10.384;2022-10-31T12:41:39;13.73;;;8.77;;
18933;SDS011;9599;53.706;10.384;2022-10-31T12:44:30;17.37;;;8.50;;
18933;SDS011;9599;53.706;10.384;2022-10-31T12:47:29;15.10;;;9.20;;
18933;SDS011;9599;53.706;10.384;2022-10-31T12:50:13;15.17;;;9.00;;
18933;SDS011;9599;53.706;10.384;2022-10-31T12:52:54;15.47;;;9.17;;
18933;SDS011;9599;53.706;10.384;2022-10-31T12:55:31;15.50;;;8.80;;
18933;SDS011;9599;53.706;10.384;2022-10-31T12:58:17;16.87;;;9.20;;
18933;SDS011;9599;53.706;10.384;2022-10-31T13:00:50;13.30;;;8.67;;
18933;SDS011;9599;53.706;10.384;2022-10-31T13:03:26;13.90;;;8.50;;
18933;SDS011;9599;53.706;10.384;2022-10-31T13:06:02;13.03;;;7.63;;
18933;SDS011;9599;53.706;10.384;2022-10-31T13:08:34;13.97;;;7.77;;
18933;SDS011;9599;53.706;10.384;2022-10-31T13:11:08;15.47;;;8.37;;
18933;SDS011;9599;53.706;10.384;2022-10-31T13:13:44;14.67;;;8.50;;
18933;SDS011;9599;53.706;10.384;2022-10-31T13:16:18;16.83;;;9.03;;
18933;SDS011;9599;53.706;10.384;2022-10-31T13:18:51;17.03;;;9.33;;
18933;SDS011;9599;53.706;10.384;2022-10-31T13:21:23;15.20;;;9.10;;
18933;SDS011;9599;53.706;10.384;2022-10-31T13:23:54;14.23;;;8.40;;
18933;SDS011;9599;53.706;10.384;2022-10-31T13:26:28;13.03;;;8.03;;
18933;SDS011;9599;53.706;10.384;2022-10-31T13:29:18;15.40;;;8.73;;
18933;SDS011;9599;53.706;10.384;2022-10-31T13:31:56;14.13;;;8.00;;
18933;SDS011;9599;53.706;10.384;2022-10-31T13:34:25;16.60;;;7.83;;
18933;SDS011;9599;53.706;10.384;2022-10-31T13:37:03;14.07;;;7.47;;
18933;SDS011;9599;53.706;10.384;2022-10-31T13:39:39;14.53;;;8.40;;
18933;SDS011;9599;53.706;10.384;2022-10-31T13:42:18;14.87;;;8.70;;
18933;SDS011;9599;53.706;10.384;2022-10-31T13:44:51;15.20;;;8.23;;
18933;SDS011;9599;53.706;10.384;2022-10-31T13:47:20;15.10;;;8.80;;
18933;SDS011;9599;53.706;10.384;2022-10-31T13:49:51;13.80;;;8.20;;
18933;SDS011;9599;53.706;10.384;2022-10-31T13:52:22;16.40;;;9.23;;
18933;SDS011;9599;53.706;10.384;2022-10-31T13:54:53;14.60;;;8.73;;
18933;SDS011;9599;53.706;10.384;2022-10-31T13:57:25;18.90;;;8.87;;
18933;SDS011;9599;53.706;10.384;2022-10-31T14:00:03;14.87;;;9.50;;
18933;SDS011;9599;53.706;10.384;2022-10-31T14:02:44;15.07;;;9.00;;
18933;SDS011;9599;53.706;10.384;2022-10-31T14:05:19;15.20;;;8.60;;
18933;SDS011;9599;53.706;10.384;2022-10-31T14:07:50;15.77;;;8.47;;
18933;SDS011;9599;53.706;10.384;2022-10-31T14:10:20;12.33;;;8.03;;
18933;SDS011;9599;53.706;10.384;2022-10-31T14:12:53;14.70;;;8.40;;
18933;SDS011;9599;53.706;10.384;2022-10-31T14:15:31;16.50;;;8.17;;
18933;SDS011;9599;53.706;10.384;2022-10-31T14:18:00;13.80;;;8.00;;
18933;SDS011;9599;53.706;10.384;2022-10-31T14:20:34;13.77;;;7.57;;
18933;SDS011;9599;53.706;10.384;2022-10-31T14:23:12;13.87;;;8.03;;
18933;SDS011;9599;53.706;10.384;2022-10-31T14:26:16;13.33;;;8.00;;
18933;SDS011;9599;53.706;10.384;2022-10-31T14:28:47;12.33;;;7.43;;
18933;SDS011;9599;53.706;10.384;2022-10-31T14:31:35;13.37;;;7.70;;
18933;SDS011;9599;53.706;10.384;2022-10-31T14:34:16;13.97;;;7.93;;
18933;SDS011;9599;53.706;10.384;2022-10-31T14:36:51;11.90;;;7.70;;
18933;SDS011;9599;53.706;10.384;2022-10-31T14:39:55;13.87;;;7.90;;
18933;SDS011;9599;53.706;10.384;2022-10-31T14:42:35;13.40;;;8.30;;
18933;SDS011;9599;53.706;10.384;2022-10-31T14:45:17;15.27;;;8.17;;
18933;SDS011;9599;53.706;10.384;2022-10-31T14:47:58;13.17;;;8.07;;
18933;SDS011;9599;53.706;10.384;2022-10-31T14:50:44;13.93;;;7.73;;
18933;SDS011;9599;53.706;10.384;2022-10-31T14:53:17;14.00;;;8.20;;
18933;SDS011;9599;53.706;10.384;2022-10-31T14:55:50;14.17;;;8.47;;
18933;SDS011;9599;53.706;10.384;2022-10-31T14:58:21;14.50;;;8.33;;
18933;SDS011;9599;53.706;10.384;2022-10-31T15:00:54;14.37;;;8.60;;
18933;SDS011;9599;53.706;10.384;2022-10-31T15:03:26;14.73;;;8.37;;
18933;SDS011;9599;53.706;10.384;2022-10-31T15:05:58;12.27;;;8.37;;
18933;SDS011;9599;53.706;10.384;2022-10-31T15:08:32;12.80;;;8.40;;